Terminal Aerodrome Forecast
Issued by NWS Duluth, MN

Home | Current Version | Previous Version | Text Only | Print | Product List | Glossary On
Versions: 1 2 3 4 5 6 7 8 9 10 11 12 13 14 15 16 17
000
FTUS43 KDLH 221815 AAA
TAFINL
TAF AMD
KINL 221815Z 2218/2318 21006KT 1 1/2SM -SN OVC012
     FM222300 22005KT 4SM -SN OVC015
     FM230100 24005KT P6SM OVC040
     FM230600 VRB04KT P6SM SCT040
      AMD NOT SKED=

USA.gov is the U.S. government's official web portal to all federal, state and local government web resources and services.